Time;durP1;ratioP1;P1;durP2;ratioP2;P2;SDS_P1;SDS_P2;PMS_P1;PMS_P2;Temp;Humidity;BMP_temperature;BMP_pressure;BME280_temperature;BME280_humidity;BME280_pressure;Samples;Min_cycle;Max_cycle;Signal;HPM_P1;HPM_P2
2021/03/18 00:01:13;;;;;;;18.70;7.20;;;;;;;2.56;74.34;98646.91;3548592;27;20058;-52
2021/03/18 00:02:55;;;;;;;19.30;8.60;;;;;;;2.57;74.45;98649.53;3552529;27;20506;-50
2021/03/18 00:04:37;;;;;;;17.40;7.57;;;;;;;2.56;74.43;98644.34;3548475;27;20038;-50
2021/03/18 00:06:18;;;;;;;19.17;8.13;;;;;;;2.56;74.35;98652.03;3551468;27;20078;-50
2021/03/18 00:08:00;;;;;;;16.63;7.78;;;;;;;2.56;74.16;98649.47;3551616;27;20089;-49
2021/03/18 00:09:42;;;;;;;13.52;7.43;;;;;;;2.56;74.31;98657.16;3551105;27;20050;-52
2021/03/18 00:11:24;;;;;;;20.63;7.45;;;;;;;2.55;74.53;98653.72;3552011;27;20042;-50
2021/03/18 00:13:07;;;;;;;21.27;7.50;;;;;;;2.55;74.38;98658.81;3547163;27;20054;-49
2021/03/18 00:14:48;;;;;;;19.90;8.13;;;;;;;2.55;74.46;98653.72;3552205;27;20144;-50
2021/03/18 00:16:30;;;;;;;15.18;7.15;;;;;;;2.55;74.35;98657.97;3550732;27;20042;-50
2021/03/18 00:18:13;;;;;;;12.68;6.88;;;;;;;2.53;74.59;98655.34;3551648;27;20047;-50
2021/03/18 00:19:55;;;;;;;17.15;8.02;;;;;;;2.53;74.40;98660.47;3549090;27;20047;-50
2021/03/18 00:21:36;;;;;;;18.48;7.90;;;;;;;2.53;74.72;98652.81;3550823;27;20043;-51
2021/03/18 00:23:17;;;;;;;23.92;8.55;;;;;;;2.51;74.65;98647.63;3551548;27;20422;-52
2021/03/18 00:24:59;;;;;;;14.77;8.00;;;;;;;2.52;74.71;98651.09;3548766;27;20050;-49
2021/03/18 00:26:40;;;;;;;20.08;8.68;;;;;;;2.52;74.79;98653.66;3551882;27;20053;-49
2021/03/18 00:28:22;;;;;;;21.92;8.40;;;;;;;2.51;74.43;98651.91;3549395;27;20121;-50
2021/03/18 00:30:05;;;;;;;16.67;7.18;;;;;;;2.51;74.62;98646.78;3551440;27;20051;-52
2021/03/18 00:31:46;;;;;;;23.53;8.47;;;;;;;2.51;74.46;98650.19;3551220;27;20104;-51
2021/03/18 00:33:29;;;;;;;18.58;7.78;;;;;;;2.49;74.93;98641.59;3552467;27;20518;-50
2021/03/18 00:35:12;;;;;;;15.68;7.50;;;;;;;2.49;74.53;98650.97;3553988;27;20057;-51
2021/03/18 00:36:53;;;;;;;19.88;7.28;;;;;;;2.50;74.67;98647.59;3551973;27;20062;-50
2021/03/18 00:38:34;;;;;;;18.02;7.22;;;;;;;2.49;74.42;98646.72;3554357;27;20503;-50
2021/03/18 00:40:19;;;;;;;17.05;6.68;;;;;;;2.47;74.78;98640.69;3550219;27;20058;-49
2021/03/18 00:42:00;;;;;;;25.83;7.97;;;;;;;2.47;74.87;98639.84;3553826;27;20476;-50
2021/03/18 00:43:42;;;;;;;18.48;7.57;;;;;;;2.47;74.61;98643.25;3551419;27;20042;-50
2021/03/18 00:45:26;;;;;;;16.98;8.50;;;;;;;2.47;74.63;98650.94;3550958;27;20097;-52
2021/03/18 00:47:07;;;;;;;19.25;7.20;;;;;;;2.46;74.28;98643.22;3554305;27;20151;-50
2021/03/18 00:48:49;;;;;;;19.70;6.63;;;;;;;2.46;74.21;98643.22;3552840;27;20054;-52
2021/03/18 00:50:33;;;;;;;24.35;7.93;;;;;;;2.45;74.70;98638.94;3554267;27;20058;-50
2021/03/18 00:52:15;;;;;;;17.48;6.53;;;;;;;2.43;74.23;98649.13;3551541;27;20463;-50
2021/03/18 00:53:56;;;;;;;17.70;6.45;;;;;;;2.42;74.40;98636.28;3553270;27;20051;-49
2021/03/18 00:55:38;;;;;;;22.08;6.85;;;;;;;2.42;74.19;98642.25;3552776;27;20487;-50
2021/03/18 00:57:19;;;;;;;17.77;6.18;;;;;;;2.41;74.21;98639.66;3551795;27;20050;-52
2021/03/18 00:59:00;;;;;;;28.17;6.65;;;;;;;2.41;74.34;98648.22;3552996;27;20054;-50
2021/03/18 01:00:44;;;;;;;17.33;5.88;;;;;;;2.40;74.40;98649.03;3550926;27;20046;-50
2021/03/18 01:02:26;;;;;;;;;;;;;;;2.40;74.16;98640.50;3554548;27;20078;-51
2021/03/18 01:04:08;;;;;;;12.98;6.03;;;;;;;2.40;74.35;98653.28;3552794;27;19923;-50
2021/03/18 01:05:51;;;;;;;25.33;6.43;;;;;;;2.39;74.72;98639.59;3552868;27;20449;-50
2021/03/18 01:07:32;;;;;;;14.32;6.72;;;;;;;2.38;74.04;98647.22;3552324;27;20046;-50
2021/03/18 01:09:14;;;;;;;18.10;6.57;;;;;;;2.37;74.04;98638.69;3550483;27;20047;-49
2021/03/18 01:10:58;;;;;;;14.18;6.00;;;;;;;2.37;74.05;98638.69;3552728;27;20059;-53
2021/03/18 01:12:39;;;;;;;;;;;;;;;2.36;74.30;98639.53;3550903;27;20490;-50
2021/03/18 01:14:21;;;;;;;16.67;5.70;;;;;;;2.35;74.31;98637.78;3552640;27;19923;-50
2021/03/18 01:16:06;;;;;;;13.02;6.07;;;;;;;2.33;74.29;98632.63;3552651;27;20053;-51
2021/03/18 01:17:47;;;;;;;13.45;5.60;;;;;;;2.32;73.70;98636.00;3551926;27;20348;-52
2021/03/18 01:19:29;;;;;;;20.52;6.25;;;;;;;2.33;73.97;98637.72;3552569;27;20141;-50
2021/03/18 01:21:11;;;;;;;17.17;6.57;;;;;;;2.32;73.75;98641.13;3551431;27;20046;-50
2021/03/18 01:22:53;;;;;;;21.15;6.65;;;;;;;2.32;73.85;98635.13;3553777;27;20392;-50
2021/03/18 01:24:35;;;;;;;16.98;6.70;;;;;;;2.31;73.95;98631.69;3550176;27;20043;-50
2021/03/18 01:26:16;;;;;;;15.60;6.72;;;;;;;2.31;73.74;98631.69;3553879;27;20050;-50
2021/03/18 01:27:57;;;;;;;18.33;6.10;;;;;;;2.31;73.88;98630.84;3553711;27;20419;-51
2021/03/18 01:29:39;;;;;;;20.55;6.35;;;;;;;2.31;73.82;98635.97;3551543;27;20076;-50
2021/03/18 01:31:20;;;;;;;15.93;6.10;;;;;;;2.30;73.81;98635.06;3552047;27;20043;-50
2021/03/18 01:33:02;;;;;;;12.70;6.38;;;;;;;2.29;73.85;98643.59;3551070;27;20470;-49
2021/03/18 01:34:45;;;;;;;15.85;5.95;;;;;;;2.29;73.83;98635.91;3553456;27;20085;-51
2021/03/18 01:36:27;;;;;;;22.88;6.47;;;;;;;2.28;73.77;98636.72;3550936;27;20051;-51
2021/03/18 01:38:09;;;;;;;15.23;6.53;;;;;;;2.29;73.52;98635.06;3553946;27;20042;-50
2021/03/18 01:39:50;;;;;;;17.15;6.03;;;;;;;2.29;73.60;98629.94;3550202;27;20047;-50
2021/03/18 01:41:32;;;;;;;15.25;5.97;;;;;;;2.29;73.42;98628.25;3551400;27;20053;-50
2021/03/18 01:43:13;;;;;;;13.90;6.57;;;;;;;2.27;73.24;98624.78;3552049;27;20050;-49
2021/03/18 01:44:55;;;;;;;15.57;6.40;;;;;;;2.27;73.21;98629.88;3551178;27;20080;-50
2021/03/18 01:46:36;;;;;;;29.48;6.95;;;;;;;2.27;73.21;98631.56;3553837;27;20043;-52
2021/03/18 01:48:18;;;;;;;19.38;8.20;;;;;;;2.27;73.34;98631.56;3552163;27;20058;-56
2021/03/18 01:50:00;;;;;;;14.82;6.20;;;;;;;2.26;73.11;98630.69;3553533;27;20503;-55
2021/03/18 01:51:42;;;;;;;14.50;6.57;;;;;;;2.25;73.02;98628.09;3549972;27;20046;-55
2021/03/18 01:53:25;;;;;;;15.98;6.25;;;;;;;2.24;73.38;98636.59;3551430;27;20058;-55
2021/03/18 01:55:09;;;;;;;14.90;6.68;;;;;;;2.24;73.16;98640.03;3554774;27;20111;-55
2021/03/18 01:56:51;;;;;;;14.73;5.47;;;;;;;2.24;73.04;98639.16;3549866;27;20171;-55
2021/03/18 01:58:33;;;;;;;14.95;6.13;;;;;;;2.24;72.85;98634.06;3539037;28;20469;-55
2021/03/18 02:00:16;;;;;;;24.40;5.95;;;;;;;2.24;72.77;98634.91;3546118;27;20465;-56
2021/03/18 02:02:09;;;;;;;;;;;;;;;2.24;72.73;98627.22;3552980;27;20502;-56
2021/03/18 02:03:50;;;;;;;18.67;5.97;;;;;;;2.25;72.90;98635.75;3550899;27;19922;-54
2021/03/18 02:05:33;;;;;;;15.55;5.63;;;;;;;2.25;72.73;98633.22;3549925;27;20039;-55
2021/03/18 02:07:14;;;;;;;20.08;5.80;;;;;;;2.26;72.53;98640.06;3553076;27;20051;-55
2021/03/18 02:08:56;;;;;;;14.63;6.70;;;;;;;2.26;72.63;98637.50;3549959;27;20047;-55
2021/03/18 02:10:39;;;;;;;15.43;6.47;;;;;;;2.25;72.79;98640.88;3553454;27;20058;-56
2021/03/18 02:12:20;;;;;;;13.40;6.07;;;;;;;2.25;72.79;98638.31;3549500;27;20503;-55
2021/03/18 02:14:02;;;;;;;13.77;5.25;;;;;;;2.24;73.16;98626.38;3550878;27;20050;-55
2021/03/18 02:15:45;;;;;;;15.68;5.72;;;;;;;2.23;73.07;98633.16;3550908;27;20055;-56
2021/03/18 02:17:30;;;;;;;;;;;;;;;2.24;73.00;98636.59;3551520;27;20050;-55
2021/03/18 02:19:33;;;;;;;14.07;5.25;;;;;;;2.24;73.12;98634.06;3552810;27;20282;-56
2021/03/18 02:21:49;;;;;;;12.50;4.70;;;;;;;2.22;72.86;98628.00;3551924;27;20043;-56
2021/03/18 02:24:01;;;;;;;18.70;5.45;;;;;;;2.22;73.16;98631.44;3549602;27;20458;-55
2021/03/18 02:25:50;;;;;;;18.33;5.72;;;;;;;2.23;73.26;98642.53;3538544;27;20047;-56
2021/03/18 02:28:06;;;;;;;14.48;5.30;;;;;;;2.20;73.39;98633.09;3552272;27;20046;-55
2021/03/18 02:30:29;;;;;;;14.50;4.90;;;;;;;2.20;73.54;98642.44;3549456;27;20167;-56
2021/03/18 02:32:23;;;;;;;12.70;4.90;;;;;;;2.19;73.25;98639.00;3550278;27;20073;-56
2021/03/18 02:34:49;;;;;;;15.65;5.38;;;;;;;2.18;73.54;98644.09;3552647;27;20534;-56
2021/03/18 02:36:35;;;;;;;13.80;5.07;;;;;;;2.17;73.59;98644.91;3503615;27;20529;-55
2021/03/18 02:38:20;;;;;;;16.35;5.68;;;;;;;2.14;73.68;98636.31;3549425;27;20503;-55
2021/03/18 02:40:05;;;;;;;15.85;5.55;;;;;;;2.13;73.66;98639.72;3553413;27;20046;-55
2021/03/18 02:41:50;;;;;;;13.23;5.80;;;;;;;2.12;74.11;98653.31;3549154;27;20062;-56
2021/03/18 02:43:35;;;;;;;12.90;5.72;;;;;;;2.11;74.09;98643.91;3552449;27;20061;-55
2021/03/18 02:45:19;;;;;;;15.80;5.65;;;;;;;2.11;73.89;98645.56;3551400;27;20107;-56
2021/03/18 02:47:04;;;;;;;13.63;5.32;;;;;;;2.11;74.32;98643.03;3552195;27;20515;-56
2021/03/18 02:48:47;;;;;;;14.55;6.63;;;;;;;2.10;74.42;98643.84;3552288;27;20153;-55
2021/03/18 02:50:31;;;;;;;13.73;5.68;;;;;;;2.09;74.17;98644.66;3549124;27;20046;-55
2021/03/18 02:52:17;;;;;;;10.45;5.45;;;;;;;2.08;74.50;98653.19;3552811;27;20082;-54
2021/03/18 02:54:04;;;;;;;14.10;6.22;;;;;;;2.07;74.33;98654.84;3550508;27;20518;-56
2021/03/18 02:55:48;;;;;;;18.73;5.65;;;;;;;2.07;74.69;98651.44;3550953;27;20023;-49
2021/03/18 02:57:31;;;;;;;;;;;;;;;2.05;74.67;98655.63;3550107;27;20051;-49
2021/03/18 02:59:18;;;;;;;14.05;5.22;;;;;;;2.05;74.95;98655.63;3551416;27;20399;-51
2021/03/18 03:01:02;;;;;;;10.98;5.82;;;;;;;2.05;74.97;98653.06;3552747;27;20050;-51
2021/03/18 03:02:55;;;;;;;11.90;5.32;;;;;;;2.04;75.18;98656.44;3549408;27;20050;-50
2021/03/18 03:04:39;;;;;;;12.02;4.75;;;;;;;2.04;75.55;98651.31;3550510;27;20414;-50
2021/03/18 03:06:21;;;;;;;12.93;5.40;;;;;;;2.02;75.36;98658.94;3550995;27;20088;-50
2021/03/18 03:08:08;;;;;;;12.00;5.45;;;;;;;2.01;75.84;98662.34;3549364;27;20043;-51
2021/03/18 03:09:49;;;;;;;13.82;5.28;;;;;;;2.02;75.53;98653.84;3538716;28;20047;-56
2021/03/18 03:11:33;;;;;;;11.77;5.53;;;;;;;2.00;75.75;98663.16;3545898;27;20038;-55
2021/03/18 03:13:16;;;;;;;24.95;6.57;;;;;;;1.99;75.65;98663.09;3550534;27;20058;-57
2021/03/18 03:14:59;;;;;;;11.48;5.72;;;;;;;1.97;75.84;98665.63;3551964;27;20047;-56
2021/03/18 03:16:42;;;;;;;14.43;5.63;;;;;;;1.96;76.12;98671.56;3549438;27;20046;-56
2021/03/18 03:18:25;;;;;;;13.90;6.32;;;;;;;1.95;76.46;98669.81;3551454;27;20054;-55
2021/03/18 03:20:09;;;;;;;24.02;6.78;;;;;;;1.92;76.48;98665.47;3550667;27;20053;-56
2021/03/18 03:21:50;;;;;;;19.73;6.43;;;;;;;1.90;76.67;98669.69;3552615;27;20043;-56
2021/03/18 03:23:33;;;;;;;16.40;7.93;;;;;;;1.88;76.29;98670.44;3551485;27;20053;-55
2021/03/18 03:25:17;;;;;;;19.52;7.25;;;;;;;1.87;76.82;98666.16;3551584;27;20411;-55
2021/03/18 03:26:59;;;;;;;;;;;;;;;1.86;76.70;98666.97;3552934;27;20104;-54
2021/03/18 03:28:41;;;;;;;14.50;6.50;;;;;;;1.84;76.59;98672.03;3548459;27;20334;-55
2021/03/18 03:30:24;;;;;;;20.45;6.57;;;;;;;1.82;76.60;98665.16;3552308;27;20389;-56
2021/03/18 03:32:10;;;;;;;15.45;6.88;;;;;;;1.79;76.72;98665.91;3550239;27;20495;-56
2021/03/18 03:33:52;;;;;;;16.83;6.07;;;;;;;1.77;76.72;98667.53;3551508;27;20068;-53
2021/03/18 03:35:35;;;;;;;20.73;6.70;;;;;;;1.73;76.92;98673.38;3549973;27;20423;-55
2021/03/18 03:37:17;;;;;;;17.35;6.38;;;;;;;1.71;76.99;98672.47;3548883;27;20101;-56
2021/03/18 03:39:00;;;;;;;14.75;5.60;;;;;;;1.68;76.91;98683.44;3552175;27;20499;-55
2021/03/18 03:40:41;;;;;;;10.73;6.25;;;;;;;1.66;77.07;98685.09;3550009;27;20497;-56
2021/03/18 03:42:23;;;;;;;13.32;6.00;;;;;;;1.65;77.46;98687.59;3552163;27;20050;-55
2021/03/18 03:44:06;;;;;;;21.02;6.55;;;;;;;1.60;77.32;98677.25;3549055;27;20076;-56
2021/03/18 03:45:50;;;;;;;16.83;6.75;;;;;;;1.59;77.36;98682.28;3550913;27;20078;-54
2021/03/18 03:47:31;;;;;;;14.90;6.55;;;;;;;1.56;77.69;98686.50;3549942;27;20087;-55
2021/03/18 03:49:14;;;;;;;14.05;6.93;;;;;;;1.55;77.88;98684.75;3549491;27;20615;-56
2021/03/18 03:50:55;;;;;;;17.88;8.27;;;;;;;1.53;77.86;98680.38;3551582;27;20061;-54
2021/03/18 03:52:43;;;;;;;15.30;6.93;;;;;;;1.51;78.36;98685.47;3549643;27;20414;-54
2021/03/18 03:54:27;;;;;;;15.45;7.63;;;;;;;1.50;78.84;98682.84;3552471;27;20099;-56
2021/03/18 03:56:16;;;;;;;19.48;7.88;;;;;;;1.50;79.18;98690.53;3549209;27;20555;-56
2021/03/18 03:58:00;;;;;;;19.25;8.70;;;;;;;1.50;79.35;98695.63;3551132;27;20539;-56
2021/03/18 03:59:44;;;;;;;20.70;8.30;;;;;;;1.49;79.66;98696.44;3551516;27;20054;-54
2021/03/18 04:01:28;;;;;;;14.18;7.35;;;;;;;1.47;79.69;98693.81;3550868;27;20046;-56
2021/03/18 04:03:11;;;;;;;19.60;7.22;;;;;;;1.48;79.88;98699.81;3552603;27;20240;-56
2021/03/18 04:04:55;;;;;;;20.88;7.63;;;;;;;1.47;80.04;98693.81;3548683;27;20115;-56
2021/03/18 04:06:38;;;;;;;13.05;7.35;;;;;;;1.48;80.54;98704.94;3549946;27;20111;-54
2021/03/18 04:08:22;;;;;;;14.50;7.97;;;;;;;1.47;80.72;98693.81;3552145;27;20081;-55
2021/03/18 04:10:07;;;;;;;17.10;7.75;;;;;;;1.48;80.36;98699.81;3551218;27;20519;-55
2021/03/18 04:11:50;;;;;;;21.27;8.23;;;;;;;1.48;80.93;98705.81;3554481;27;20515;-54
2021/03/18 04:13:33;;;;;;;18.85;8.00;;;;;;;1.48;80.99;98700.69;3551665;27;20411;-55
2021/03/18 04:15:19;;;;;;;21.20;9.48;;;;;;;1.51;81.08;98705.03;3554239;27;20055;-56
2021/03/18 04:17:06;;;;;;;19.02;9.18;;;;;;;1.51;81.28;98710.13;3551397;27;20430;-56
2021/03/18 04:18:54;;;;;;;13.52;7.75;;;;;;;1.52;81.51;98704.22;3551717;27;20107;-50
2021/03/18 04:20:38;;;;;;;19.50;7.93;;;;;;;1.52;81.16;98707.63;3554021;27;20495;-56
2021/03/18 04:22:21;;;;;;;16.50;8.48;;;;;;;1.55;81.41;98712.00;3550899;27;20068;-56
2021/03/18 04:24:04;;;;;;;20.98;9.75;;;;;;;1.55;81.67;98702.63;3554651;27;20062;-56
2021/03/18 04:25:47;;;;;;;22.38;9.85;;;;;;;1.58;82.09;98706.09;3550769;27;20075;-56
2021/03/18 04:27:30;;;;;;;18.13;8.98;;;;;;;1.58;82.00;98706.97;3553397;27;20051;-55
2021/03/18 04:29:14;;;;;;;13.98;8.70;;;;;;;1.60;81.89;98707.91;3552299;27;20088;-55
2021/03/18 04:30:57;;;;;;;19.83;8.77;;;;;;;1.62;81.83;98715.59;3550912;27;20089;-54
2021/03/18 04:32:40;;;;;;;15.45;9.15;;;;;;;1.62;81.90;98711.38;3554582;27;20080;-56
2021/03/18 04:34:23;;;;;;;19.95;10.93;;;;;;;1.64;82.01;98708.88;3550711;27;20051;-56
2021/03/18 04:36:07;;;;;;;20.98;10.02;;;;;;;1.65;81.95;98706.34;3553981;27;20081;-56
2021/03/18 04:37:48;;;;;;;19.55;10.10;;;;;;;1.67;81.84;98712.41;3551450;27;20051;-56
2021/03/18 04:39:30;;;;;;;19.90;8.52;;;;;;;1.68;81.78;98709.00;3553265;27;20050;-55
2021/03/18 04:41:12;;;;;;;16.92;9.23;;;;;;;1.69;81.87;98718.44;3553304;27;20076;-56
2021/03/18 04:42:56;;;;;;;19.02;8.45;;;;;;;1.71;82.17;98714.25;3550742;27;20049;-56
2021/03/18 04:44:39;;;;;;;14.38;7.82;;;;;;;1.72;82.22;98715.09;3554341;27;20058;-56
2021/03/18 04:46:21;;;;;;;15.67;7.73;;;;;;;1.73;82.43;98720.25;3553016;27;20043;-56
2021/03/18 04:48:03;;;;;;;14.07;8.07;;;;;;;1.75;82.16;98723.75;3553575;27;20282;-54
2021/03/18 04:49:49;;;;;;;16.10;7.93;;;;;;;1.78;82.08;98727.22;3551718;27;20047;-56
2021/03/18 04:51:31;;;;;;;23.67;9.07;;;;;;;1.79;82.35;98727.25;3552886;27;20068;-56
2021/03/18 04:53:12;;;;;;;24.27;9.60;;;;;;;1.80;82.73;98734.13;3554159;27;20050;-56
2021/03/18 04:54:54;;;;;;;14.98;9.00;;;;;;;1.81;82.77;98728.19;3550871;27;20064;-56
2021/03/18 04:56:39;;;;;;;15.98;8.55;;;;;;;1.81;82.69;98730.72;3554001;27;20046;-55
2021/03/18 04:58:22;;;;;;;20.30;10.10;;;;;;;1.83;82.31;98725.69;3550464;27;20038;-56
2021/03/18 05:00:06;;;;;;;21.38;8.35;;;;;;;1.84;82.51;98725.72;3553341;27;20053;-56
2021/03/18 05:01:49;;;;;;;16.52;8.70;;;;;;;1.86;82.40;98729.19;3552741;27;20047;-57
2021/03/18 05:03:33;;;;;;;19.13;8.50;;;;;;;1.88;82.51;98734.38;3550400;27;20566;-55
2021/03/18 05:05:19;;;;;;;22.75;9.60;;;;;;;1.89;82.49;98731.00;3553987;27;20046;-55
2021/03/18 05:07:01;;;;;;;19.17;8.65;;;;;;;1.90;82.75;98733.63;3552767;27;20430;-56
2021/03/18 05:08:43;;;;;;;17.42;9.00;;;;;;;1.92;82.72;98731.97;3553678;27;20046;-56
2021/03/18 05:10:27;;;;;;;17.40;9.48;;;;;;;1.93;82.85;98730.28;3550769;27;20050;-56
2021/03/18 05:12:10;;;;;;;;;;;;;;;1.95;83.12;98733.75;3552232;27;20043;-56
2021/03/18 05:13:54;;;;;;;19.25;9.82;;;;;;;1.98;83.20;98730.44;3551110;27;20303;-55
2021/03/18 05:15:37;;;;;;;17.55;9.55;;;;;;;2.00;83.53;98736.47;3550413;27;20046;-56
2021/03/18 05:17:19;;;;;;;22.27;10.15;;;;;;;2.02;83.13;98738.25;3553770;27;20434;-56
2021/03/18 05:19:01;;;;;;;24.98;9.63;;;;;;;2.05;83.28;98735.78;3549628;27;20426;-55
2021/03/18 05:20:44;;;;;;;21.17;9.60;;;;;;;2.07;83.00;98739.25;3552137;27;20062;-56
2021/03/18 05:22:25;;;;;;;20.83;9.45;;;;;;;2.11;82.78;98741.13;3551799;27;20046;-50
2021/03/18 05:24:09;;;;;;;25.35;11.70;;;;;;;2.15;83.10;98734.41;3551506;27;20051;-53
2021/03/18 05:25:51;;;;;;;26.23;10.82;;;;;;;2.18;83.08;98736.19;3552973;27;20054;-56
2021/03/18 05:27:33;;;;;;;22.00;11.27;;;;;;;2.23;82.93;98739.75;3550235;27;20051;-55
2021/03/18 05:29:16;;;;;;;24.15;11.93;;;;;;;2.26;82.83;98738.16;3553598;27;20046;-56
2021/03/18 05:30:57;;;;;;;24.60;11.35;;;;;;;2.30;82.52;98746.81;3552532;27;20107;-50
2021/03/18 05:32:40;;;;;;;21.92;10.82;;;;;;;2.33;82.62;98754.59;3551436;27;20419;-51
2021/03/18 05:34:22;;;;;;;18.85;10.00;;;;;;;2.37;82.19;98746.19;3552247;27;20046;-50
2021/03/18 05:36:04;;;;;;;18.50;9.77;;;;;;;2.40;82.05;98755.66;3550231;27;20107;-52
2021/03/18 05:37:45;;;;;;;27.55;10.77;;;;;;;2.42;81.91;98752.31;3553627;27;20053;-51
2021/03/18 05:39:26;;;;;;;22.13;10.82;;;;;;;2.46;82.33;98758.38;3552213;27;20050;-49
2021/03/18 05:41:08;;;;;;;24.77;11.30;;;;;;;2.49;82.14;98755.94;3553707;27;20054;-49
2021/03/18 05:42:51;;;;;;;24.38;10.93;;;;;;;2.54;82.02;98758.66;3549795;27;20043;-50
2021/03/18 05:44:33;;;;;;;27.67;11.77;;;;;;;2.56;81.79;98762.97;3551469;27;20322;-50
2021/03/18 05:46:15;;;;;;;19.65;10.88;;;;;;;2.59;81.87;98763.09;3552161;27;20043;-52
2021/03/18 05:47:58;;;;;;;24.35;11.65;;;;;;;2.61;81.80;98763.13;3550140;27;20051;-50
2021/03/18 05:49:44;;;;;;;32.35;10.73;;;;;;;2.63;81.66;98767.47;3553425;27;20555;-50
2021/03/18 05:51:27;;;;;;;19.90;10.70;;;;;;;2.66;81.77;98764.09;3552092;27;20080;-49
2021/03/18 05:53:10;;;;;;;27.55;11.35;;;;;;;2.69;81.95;98767.66;3553002;27;20573;-50
2021/03/18 05:54:53;;;;;;;30.50;10.65;;;;;;;2.73;81.57;98767.72;3550687;27;20050;-51
2021/03/18 05:56:35;;;;;;;22.45;10.48;;;;;;;2.74;81.40;98765.22;3551635;27;20055;-52
2021/03/18 05:58:21;;;;;;;18.77;9.07;;;;;;;2.74;81.14;98772.91;3553308;27;20491;-50
2021/03/18 06:00:05;;;;;;;22.90;9.40;;;;;;;2.76;80.95;98766.13;3551087;27;20099;-51
2021/03/18 06:01:47;;;;;;;30.85;10.10;;;;;;;2.76;80.89;98771.25;3553292;27;20051;-52
2021/03/18 06:03:28;;;;;;;20.38;10.30;;;;;;;2.78;80.75;98773.88;3549791;27;20050;-52
2021/03/18 06:05:15;;;;;;;25.52;9.77;;;;;;;2.79;80.76;98778.19;3552196;27;20050;-49
2021/03/18 06:06:57;;;;;;;21.17;9.88;;;;;;;2.78;80.53;98782.41;3550970;27;20051;-50
2021/03/18 06:08:40;;;;;;;21.20;9.77;;;;;;;2.80;80.28;98775.66;3549805;27;20046;-50
2021/03/18 06:10:23;;;;;;;20.17;10.68;;;;;;;2.83;80.47;98782.56;3552965;27;20526;-49
2021/03/18 06:12:06;;;;;;;42.30;11.18;;;;;;;2.82;80.03;98784.25;3550048;27;20378;-55
2021/03/18 06:13:48;;;;;;;19.92;9.85;;;;;;;2.84;80.38;98787.72;3551740;27;20081;-56
2021/03/18 06:15:29;;;;;;;24.67;11.40;;;;;;;2.85;80.28;98789.47;3551908;27;20563;-56
2021/03/18 06:17:12;;;;;;;24.20;11.73;;;;;;;2.87;80.28;98792.06;3551411;27;20499;-54
2021/03/18 06:18:53;;;;;;;24.00;10.52;;;;;;;2.88;80.29;98788.69;3551637;27;20050;-55
2021/03/18 06:20:35;;;;;;;20.55;9.90;;;;;;;2.91;80.06;98788.78;3550118;27;20553;-56
2021/03/18 06:22:32;;;;;;;22.88;11.73;;;;;;;2.96;80.45;98792.34;3552636;27;20423;-56
2021/03/18 06:24:14;;;;;;;22.52;10.30;;;;;;;3.01;80.29;98789.91;3549441;27;20521;-55
2021/03/18 06:25:56;;;;;;;20.25;9.63;;;;;;;3.06;80.27;98789.22;3552180;27;20070;-53
2021/03/18 06:27:37;;;;;;;25.55;10.13;;;;;;;3.14;80.09;98792.03;3550666;27;20092;-56
2021/03/18 06:29:31;;;;;;;21.10;11.27;;;;;;;3.19;79.21;98797.25;3551987;27;20051;-56
2021/03/18 06:31:15;;;;;;;24.77;10.35;;;;;;;3.22;79.16;98798.25;3538340;27;20393;-56
2021/03/18 06:33:02;;;;;;;;;;;;;;;3.29;79.23;98791.56;3547701;27;20054;-56
2021/03/18 06:34:46;;;;;;;24.13;9.85;;;;;;;3.37;78.56;98795.25;3552576;27;19934;-56
2021/03/18 06:36:29;;;;;;;18.63;9.55;;;;;;;3.46;78.52;98787.78;3549993;27;20046;-56
2021/03/18 06:38:10;;;;;;;22.85;10.32;;;;;;;3.53;78.53;98793.97;3549750;27;20047;-56
2021/03/18 06:39:52;;;;;;;28.23;11.43;;;;;;;3.61;78.22;98787.38;3552941;27;20051;-57
2021/03/18 06:41:35;;;;;;;26.70;11.57;;;;;;;3.68;77.95;98785.81;3549205;27;20047;-56
2021/03/18 06:43:17;;;;;;;19.52;10.07;;;;;;;3.75;77.81;98781.72;3552875;27;20439;-56
2021/03/18 06:45:08;;;;;;;23.23;10.07;;;;;;;3.80;77.02;98787.84;3549527;27;20054;-56
2021/03/18 06:46:51;;;;;;;22.38;10.95;;;;;;;3.83;76.48;98788.78;3551078;27;20043;-57
2021/03/18 06:48:38;;;;;;;23.15;10.43;;;;;;;3.88;76.68;98793.16;3553036;27;20051;-57
2021/03/18 06:50:21;;;;;;;20.60;9.68;;;;;;;3.90;76.46;98791.53;3551327;27;20051;-56
2021/03/18 06:52:05;;;;;;;26.75;10.52;;;;;;;3.87;76.30;98791.44;3552887;27;20047;-57
2021/03/18 06:53:46;;;;;;;17.05;9.68;;;;;;;3.90;75.90;98786.38;3549141;27;20495;-55
2021/03/18 06:55:31;;;;;;;28.48;10.00;;;;;;;3.89;75.48;98793.19;3552549;27;20050;-57
2021/03/18 06:57:18;;;;;;;24.70;10.82;;;;;;;3.90;76.14;98792.38;3549501;27;20046;-57
2021/03/18 06:59:00;;;;;;;22.20;10.57;;;;;;;3.94;76.00;98791.63;3550499;27;20075;-56
2021/03/18 07:00:46;;;;;;;19.77;11.07;;;;;;;4.00;75.97;98794.38;3551503;27;20058;-57
2021/03/18 07:02:28;;;;;;;21.23;10.60;;;;;;;4.06;75.94;98795.34;3551433;27;20047;-56
2021/03/18 07:04:09;;;;;;;23.15;9.52;;;;;;;4.12;76.23;98792.91;3552985;27;20107;-57
2021/03/18 07:06:02;;;;;;;20.08;9.60;;;;;;;4.18;75.44;98793.09;3549713;27;20047;-55
2021/03/18 07:07:44;;;;;;;20.10;9.50;;;;;;;4.23;75.32;98792.38;3550524;27;20057;-57
2021/03/18 07:09:28;;;;;;;22.00;10.48;;;;;;;4.30;75.31;98795.06;3551270;27;20049;-56
2021/03/18 07:11:18;;;;;;;24.40;10.50;;;;;;;4.38;75.38;98799.56;3549116;27;20053;-56
2021/03/18 07:13:15;;;;;;;31.55;10.63;;;;;;;4.50;75.45;98795.56;3551325;27;20046;-56
2021/03/18 07:15:00;;;;;;;19.20;9.43;;;;;;;4.61;74.95;98797.53;3549359;27;20051;-56
2021/03/18 07:16:46;;;;;;;20.10;10.30;;;;;;;4.72;74.03;98802.06;3551415;27;20499;-56
2021/03/18 07:18:28;;;;;;;25.10;9.82;;;;;;;4.83;73.46;98798.06;3550621;27;20046;-57
2021/03/18 07:20:15;;;;;;;21.70;11.05;;;;;;;4.89;72.67;98798.16;3549089;27;20049;-56
2021/03/18 07:21:58;;;;;;;20.92;10.05;;;;;;;4.98;73.34;98794.94;3552548;27;20093;-57
2021/03/18 07:23:41;;;;;;;27.83;11.23;;;;;;;5.08;72.37;98793.44;3550306;27;20043;-56
2021/03/18 07:25:27;;;;;;;29.33;11.55;;;;;;;5.14;71.84;98788.41;3550444;27;20050;-57
2021/03/18 07:27:11;;;;;;;21.20;10.55;;;;;;;5.25;71.91;98786.91;3550700;27;20047;-56
2021/03/18 07:29:11;;;;;;;18.83;9.95;;;;;;;5.38;71.63;98790.63;3549032;27;20047;-57
2021/03/18 07:30:52;;;;;;;24.15;10.93;;;;;;;5.53;70.48;98790.91;3552536;27;20078;-57
2021/03/18 07:32:35;;;;;;;18.98;10.23;;;;;;;5.68;71.02;98782.63;3552225;27;20046;-57
2021/03/18 07:34:18;;;;;;;21.50;9.95;;;;;;;5.86;71.08;98786.41;3550357;27;20540;-57
2021/03/18 07:36:18;;;;;;;23.50;10.43;;;;;;;5.94;68.70;98790.84;3552121;27;20059;-56
2021/03/18 07:37:59;;;;;;;30.23;9.68;;;;;;;5.97;67.83;98784.00;3548981;27;20090;-56
2021/03/18 07:39:41;;;;;;;24.42;10.40;;;;;;;6.02;69.38;98788.38;3552496;27;20046;-56
2021/03/18 07:41:24;;;;;;;33.75;10.07;;;;;;;6.06;67.55;98790.16;3548947;27;20039;-57
2021/03/18 07:43:05;;;;;;;17.95;8.95;;;;;;;6.10;67.80;98788.50;3552459;27;20043;-57
2021/03/18 07:44:48;;;;;;;18.98;8.68;;;;;;;6.11;67.25;98793.69;3552584;27;20055;-55
2021/03/18 07:46:32;;;;;;;18.10;9.20;;;;;;;6.09;66.69;98789.38;3551648;27;20046;-56
2021/03/18 07:48:20;;;;;;;16.95;8.15;;;;;;;6.08;67.23;98792.78;3554127;27;20047;-57
2021/03/18 07:50:03;;;;;;;16.77;8.23;;;;;;;6.06;67.55;98789.31;3551338;27;20039;-56
2021/03/18 07:51:48;;;;;;;24.20;10.18;;;;;;;6.02;66.09;98795.25;3554845;27;20050;-57
2021/03/18 07:53:31;;;;;;;12.95;7.65;;;;;;;5.95;66.73;98786.56;3550802;27;20106;-56
2021/03/18 07:55:16;;;;;;;24.33;8.50;;;;;;;5.88;66.18;98788.13;3552611;27;20042;-56
2021/03/18 07:56:58;;;;;;;15.45;7.82;;;;;;;5.84;66.93;98788.94;3553735;27;20054;-55
2021/03/18 07:58:41;;;;;;;18.05;8.82;;;;;;;5.81;66.98;98793.16;3551219;27;20043;-55
2021/03/18 08:00:24;;;;;;;24.67;8.45;;;;;;;5.72;66.52;98792.13;3554819;27;20052;-56
2021/03/18 08:02:17;;;;;;;16.85;9.43;;;;;;;5.62;67.18;98791.94;3551203;27;20415;-55
2021/03/18 08:04:01;;;;;;;22.77;9.25;;;;;;;5.55;67.89;98794.41;3552842;27;20662;-54
2021/03/18 08:05:42;;;;;;;17.50;8.05;;;;;;;5.55;68.07;98796.09;3553486;27;20050;-55
2021/03/18 08:07:38;;;;;;;19.85;8.73;;;;;;;5.49;67.76;98802.00;3551591;27;20045;-57
2021/03/18 08:09:59;;;;;;;18.77;8.68;;;;;;;5.46;67.95;98795.91;3540445;28;20066;-55
2021/03/18 08:11:43;;;;;;;24.15;8.05;;;;;;;5.47;68.26;98790.81;3551977;27;20054;-55